Industry, Maine
Current Conditions -  °F | °C
As of 12:35 AM on Thursday 23 Oct 2014 (Local Time) from KWVL Reporting Station
Overcast Overcast  
Wind Chill:   Ceiling: 800
Heat Index:   Visibility: 10mi
Dew Point:   Wind: 15mph
Humidity: 81%   Direction: 30°NNE
Pressure: 30.02"   Gusts: 28mph
Location:  44.6583°N, 70.1012°W
Report Text: KWVL 230435Z 03013G24KT 10SM OVC008 07/04 A3002 RMK AO1
Loading
Personal Weather Stations






























Interactive Weather Map
Tropical Storm Tracking
New forecast layout! Learn more

10-Day Weather Forecast

Advertisements
Track Severe Weather on mobile